createdAt,value
2018-03-08T00:00:57.988Z,992.78
2018-03-08T00:01:58.037Z,992.81
2018-03-08T00:02:57.986Z,992.82
2018-03-08T00:03:57.985Z,992.87
2018-03-08T00:04:58.112Z,992.86
2018-03-08T00:05:57.988Z,992.90
2018-03-08T00:06:57.985Z,992.84
2018-03-08T00:07:58.014Z,992.82
2018-03-08T00:08:57.983Z,992.84
2018-03-08T00:09:58.012Z,992.84
2018-03-08T00:10:58.007Z,992.83
2018-03-08T00:11:57.989Z,992.84
2018-03-08T00:12:57.989Z,992.85
2018-03-08T00:13:58.026Z,992.85
2018-03-08T00:14:57.997Z,992.86
2018-03-08T00:15:57.990Z,992.90
2018-03-08T00:16:57.991Z,992.92
2018-03-08T00:17:58.095Z,992.93
2018-03-08T00:18:58.035Z,992.94
2018-03-08T00:19:58.019Z,992.95
2018-03-08T00:20:58.000Z,992.98
2018-03-08T00:21:58.009Z,992.95
2018-03-08T00:22:58.057Z,992.97
2018-03-08T00:23:57.988Z,992.96
2018-03-08T00:24:57.993Z,992.97
2018-03-08T00:25:58.038Z,992.98
2018-03-08T00:26:57.994Z,993.00
2018-03-08T00:27:58.000Z,993.00
2018-03-08T00:28:58.001Z,993.06
2018-03-08T00:29:58.017Z,993.06
2018-03-08T00:30:57.997Z,993.06
2018-03-08T00:31:57.991Z,993.07
2018-03-08T00:32:58.016Z,993.11
2018-03-08T00:33:58.003Z,993.11
2018-03-08T00:34:58.008Z,993.14
2018-03-08T00:35:58.018Z,993.14
2018-03-08T00:36:58.021Z,993.15
2018-03-08T00:37:57.989Z,993.15
2018-03-08T00:38:57.996Z,993.14
2018-03-08T00:39:58.079Z,993.14
2018-03-08T00:40:57.988Z,993.16
2018-03-08T00:41:58.008Z,993.22
2018-03-08T00:42:58.024Z,993.19
2018-03-08T00:43:58.003Z,993.24
2018-03-08T00:44:57.987Z,993.26
2018-03-08T00:45:57.993Z,993.26
2018-03-08T00:46:57.998Z,993.23
2018-03-08T00:47:58.018Z,993.22
2018-03-08T00:48:57.995Z,993.26
2018-03-08T00:49:58.035Z,993.31
2018-03-08T00:50:58.001Z,993.29
2018-03-08T00:51:57.994Z,993.29
2018-03-08T00:52:58.955Z,993.34
2018-03-08T00:53:57.994Z,993.30
2018-03-08T00:54:58.052Z,993.38
2018-03-08T00:55:58.015Z,993.34
2018-03-08T00:56:58.047Z,993.32
2018-03-08T00:57:58.034Z,993.35
2018-03-08T00:58:57.995Z,993.31
2018-03-08T00:59:57.992Z,993.33
2018-03-08T01:00:57.997Z,993.37
2018-03-08T01:01:58.032Z,993.34
2018-03-08T01:02:57.994Z,993.35
2018-03-08T01:03:57.996Z,993.36
2018-03-08T01:04:57.996Z,993.37
2018-03-08T01:05:58.008Z,993.36
2018-03-08T01:06:58.044Z,993.36
2018-03-08T01:07:58.010Z,993.37
2018-03-08T01:08:58.010Z,993.43
2018-03-08T01:09:58.019Z,993.41
2018-03-08T01:10:59.518Z,993.41
2018-03-08T01:11:57.994Z,993.39
2018-03-08T01:12:57.993Z,993.40
2018-03-08T01:13:58.005Z,993.47
2018-03-08T01:14:58.013Z,993.44
2018-03-08T01:15:58.007Z,993.44
2018-03-08T01:16:57.997Z,993.44
2018-03-08T01:17:58.029Z,993.46
2018-03-08T01:18:58.036Z,993.39
2018-03-08T01:19:57.989Z,993.49
2018-03-08T01:20:58.041Z,993.54
2018-03-08T01:21:57.995Z,993.49
2018-03-08T01:22:57.995Z,993.49
2018-03-08T01:23:58.015Z,993.53
2018-03-08T01:24:58.004Z,993.49
2018-03-08T01:25:58.045Z,993.51
2018-03-08T01:26:57.989Z,993.57
2018-03-08T01:27:58.037Z,993.55
2018-03-08T01:28:57.990Z,993.57
2018-03-08T01:29:57.995Z,993.61
2018-03-08T01:30:57.990Z,993.62
2018-03-08T01:31:57.984Z,993.57
2018-03-08T01:32:57.999Z,993.61
2018-03-08T01:33:57.984Z,993.62
2018-03-08T01:34:58.030Z,993.64
2018-03-08T01:35:58.010Z,993.61
2018-03-08T01:36:57.988Z,993.66
2018-03-08T01:37:57.998Z,993.70
2018-03-08T01:38:58.011Z,993.65
2018-03-08T01:39:58.008Z,993.65
2018-03-08T01:40:58.036Z,993.70
2018-03-08T01:41:57.989Z,993.68
2018-03-08T01:42:57.999Z,993.71
2018-03-08T01:43:58.038Z,993.71
2018-03-08T01:44:58.051Z,993.72
2018-03-08T01:45:57.991Z,993.72
2018-03-08T01:46:57.996Z,993.75
2018-03-08T01:47:57.989Z,993.79
2018-03-08T01:48:58.018Z,993.77
2018-03-08T01:49:57.990Z,993.77
2018-03-08T01:50:57.992Z,993.80
2018-03-08T01:51:57.992Z,993.85
2018-03-08T01:52:58.011Z,993.84
2018-03-08T01:53:58.043Z,993.89
2018-03-08T01:54:57.987Z,993.84
2018-03-08T01:55:57.990Z,993.88
2018-03-08T01:56:58.016Z,993.83
2018-03-08T01:57:58.018Z,993.88
2018-03-08T01:58:58.960Z,993.92
2018-03-08T01:59:57.989Z,993.88
2018-03-08T02:00:57.999Z,993.84
2018-03-08T02:01:57.983Z,993.92
2018-03-08T02:02:58.002Z,993.91
2018-03-08T02:03:58.013Z,993.92
2018-03-08T02:04:58.069Z,993.94
2018-03-08T02:05:58.012Z,993.91
2018-03-08T02:06:57.992Z,993.92
2018-03-08T02:07:57.987Z,993.95
2018-03-08T02:08:57.989Z,993.96
2018-03-08T02:09:58.015Z,993.95
2018-03-08T02:10:57.992Z,993.98
2018-03-08T02:11:58.021Z,993.99
2018-03-08T02:12:57.982Z,993.99
2018-03-08T02:13:58.021Z,994.03
2018-03-08T02:14:58.016Z,994.01
2018-03-08T02:15:57.993Z,994.01
2018-03-08T02:16:58.009Z,994.05
2018-03-08T02:17:57.995Z,994.05
2018-03-08T02:18:58.026Z,994.09
2018-03-08T02:19:58.050Z,994.04
2018-03-08T02:20:57.979Z,994.06
2018-03-08T02:21:57.999Z,994.13
2018-03-08T02:22:57.976Z,994.10
2018-03-08T02:23:58.022Z,994.11
2018-03-08T02:24:58.029Z,994.10
2018-03-08T02:25:57.991Z,994.09
2018-03-08T02:26:57.973Z,994.12
2018-03-08T02:27:57.976Z,994.15
2018-03-08T02:28:58.025Z,994.16
2018-03-08T02:29:57.977Z,994.12
2018-03-08T02:30:57.974Z,994.12
2018-03-08T02:31:57.980Z,994.16
2018-03-08T02:32:57.984Z,994.16
2018-03-08T02:33:57.977Z,994.21
2018-03-08T02:34:57.985Z,994.20
2018-03-08T02:35:58.012Z,994.19
2018-03-08T02:36:57.988Z,994.17
2018-03-08T02:37:57.979Z,994.17
2018-03-08T02:38:57.974Z,994.22
2018-03-08T02:39:57.992Z,994.22
2018-03-08T02:40:58.009Z,994.21
2018-03-08T02:41:58.002Z,994.25
2018-03-08T02:42:58.017Z,994.25
2018-03-08T02:43:58.018Z,994.23
2018-03-08T02:44:57.982Z,994.22
2018-03-08T02:45:58.010Z,994.24
2018-03-08T02:46:57.972Z,994.25
2018-03-08T02:47:58.005Z,994.23
2018-03-08T02:48:57.991Z,994.25
2018-03-08T02:49:58.018Z,994.28
2018-03-08T02:50:57.980Z,994.30
2018-03-08T02:51:58.004Z,994.26
2018-03-08T02:52:57.970Z,994.27
2018-03-08T02:53:57.973Z,994.29
2018-03-08T02:54:58.000Z,994.26
2018-03-08T02:55:58.034Z,994.26
2018-03-08T02:56:57.967Z,994.27
2018-03-08T02:57:57.988Z,994.27
2018-03-08T02:58:57.988Z,994.28
2018-03-08T02:59:58.013Z,994.31
2018-03-08T03:00:57.983Z,994.31
2018-03-08T03:01:58.002Z,994.33
2018-03-08T03:02:57.970Z,994.33
2018-03-08T03:03:57.997Z,994.33
2018-03-08T03:04:57.994Z,994.34
2018-03-08T03:05:57.977Z,994.35
2018-03-08T03:06:57.974Z,994.31
2018-03-08T03:07:57.985Z,994.34
2018-03-08T03:08:58.976Z,994.36
2018-03-08T03:09:58.019Z,994.34
2018-03-08T03:10:57.974Z,994.42
2018-03-08T03:11:57.982Z,994.42
2018-03-08T03:12:57.983Z,994.40
2018-03-08T03:13:57.996Z,994.40
2018-03-08T03:14:57.967Z,994.39
2018-03-08T03:15:58.048Z,994.40
2018-03-08T03:16:58.000Z,994.39
2018-03-08T03:17:57.999Z,994.39
2018-03-08T03:18:57.994Z,994.40
2018-03-08T03:19:57.995Z,994.44
2018-03-08T03:20:57.997Z,994.44
2018-03-08T03:21:57.985Z,994.48
2018-03-08T03:22:57.995Z,994.47
2018-03-08T03:23:57.973Z,994.42
2018-03-08T03:24:58.015Z,994.46
2018-03-08T03:25:58.024Z,994.48
2018-03-08T03:26:57.972Z,994.46
2018-03-08T03:27:57.991Z,994.47
2018-03-08T03:28:57.969Z,994.51
2018-03-08T03:29:58.481Z,994.52
2018-03-08T03:30:57.984Z,994.47
2018-03-08T03:31:58.019Z,994.52
2018-03-08T03:32:57.997Z,994.52
2018-03-08T03:33:57.963Z,994.47
2018-03-08T03:34:57.986Z,994.48
2018-03-08T03:35:58.009Z,994.52
2018-03-08T03:36:58.001Z,994.51
2018-03-08T03:37:57.978Z,994.47
2018-03-08T03:38:57.971Z,994.51
2018-03-08T03:39:57.994Z,994.48
2018-03-08T03:40:58.011Z,994.51
2018-03-08T03:41:57.999Z,994.53
2018-03-08T03:42:57.998Z,994.57
2018-03-08T03:43:57.989Z,994.58
2018-03-08T03:44:57.968Z,994.59
2018-03-08T03:45:58.033Z,994.60
2018-03-08T03:46:57.966Z,994.60
2018-03-08T03:47:57.971Z,994.57
2018-03-08T03:48:57.973Z,994.58
2018-03-08T03:49:58.042Z,994.59
2018-03-08T03:50:57.989Z,994.60
2018-03-08T03:51:57.985Z,994.61
2018-03-08T03:52:57.987Z,994.60
2018-03-08T03:53:57.971Z,994.59
2018-03-08T03:54:57.964Z,994.61
2018-03-08T03:55:57.996Z,994.64
2018-03-08T03:56:57.961Z,994.61
2018-03-08T03:57:58.009Z,994.62
2018-03-08T03:58:59.565Z,994.65
2018-03-08T03:59:57.963Z,994.64
2018-03-08T04:00:57.997Z,994.68
2018-03-08T04:01:57.967Z,994.67
2018-03-08T04:02:57.982Z,994.65
2018-03-08T04:03:57.961Z,994.61
2018-03-08T04:04:57.969Z,994.63
2018-03-08T04:05:57.991Z,994.64
2018-03-08T04:06:57.988Z,994.68
2018-03-08T04:07:57.967Z,994.66
2018-03-08T04:08:57.959Z,994.71
2018-03-08T04:09:57.961Z,994.71
2018-03-08T04:10:57.962Z,994.72
2018-03-08T04:11:57.979Z,994.71
2018-03-08T04:12:57.962Z,994.73
2018-03-08T04:13:58.023Z,994.79
2018-03-08T04:14:57.990Z,994.75
2018-03-08T04:15:58.087Z,994.75
2018-03-08T04:16:57.977Z,994.77
2018-03-08T04:17:57.967Z,994.77
2018-03-08T04:18:57.959Z,994.75
2018-03-08T04:19:57.980Z,994.80
2018-03-08T04:20:57.963Z,994.79
2018-03-08T04:21:57.979Z,994.74
2018-03-08T04:22:57.987Z,994.76
2018-03-08T04:23:57.975Z,994.76
2018-03-08T04:24:57.961Z,994.78
2018-03-08T04:25:57.977Z,994.75
2018-03-08T04:26:57.953Z,994.82
2018-03-08T04:27:57.968Z,994.82
2018-03-08T04:28:57.998Z,994.79
2018-03-08T04:29:57.973Z,994.83
2018-03-08T04:30:58.016Z,994.84
2018-03-08T04:31:57.957Z,994.86
2018-03-08T04:32:57.992Z,994.81
2018-03-08T04:33:57.964Z,994.85
2018-03-08T04:34:57.953Z,994.88
2018-03-08T04:35:57.961Z,994.90
2018-03-08T04:36:57.951Z,994.88
2018-03-08T04:37:57.966Z,994.91
2018-03-08T04:38:57.953Z,994.88
2018-03-08T04:39:57.970Z,994.92
2018-03-08T04:40:57.961Z,994.91
2018-03-08T04:41:57.974Z,994.92
2018-03-08T04:42:57.975Z,994.92
2018-03-08T04:43:57.955Z,994.93
2018-03-08T04:44:57.957Z,994.97
2018-03-08T04:45:57.980Z,994.96
2018-03-08T04:46:57.952Z,994.94
2018-03-08T04:47:58.016Z,994.95
2018-03-08T04:48:57.949Z,994.94
2018-03-08T04:49:57.951Z,994.99
2018-03-08T04:50:57.978Z,995.01
2018-03-08T04:51:57.950Z,995.02
2018-03-08T04:52:57.990Z,995.06
2018-03-08T04:53:57.941Z,995.01
2018-03-08T04:54:57.971Z,995.02
2018-03-08T04:55:57.949Z,995.02
2018-03-08T04:56:57.964Z,995.04
2018-03-08T04:57:57.944Z,995.02
2018-03-08T04:58:57.956Z,995.05
2018-03-08T04:59:58.027Z,995.07
2018-03-08T05:00:57.979Z,995.11
2018-03-08T05:01:58.000Z,995.08
2018-03-08T05:02:57.943Z,995.13
2018-03-08T05:03:57.944Z,995.10
2018-03-08T05:04:57.943Z,995.12
2018-03-08T05:05:57.950Z,995.15
2018-03-08T05:06:57.950Z,995.14
2018-03-08T05:07:58.043Z,995.18
2018-03-08T05:08:57.939Z,995.21
2018-03-08T05:09:57.991Z,995.18
2018-03-08T05:10:57.939Z,995.19
2018-03-08T05:11:57.972Z,995.17
2018-03-08T05:12:57.943Z,995.19
2018-03-08T05:13:57.956Z,995.25
2018-03-08T05:14:57.942Z,995.22
2018-03-08T05:15:57.936Z,995.22
2018-03-08T05:16:57.941Z,995.20
2018-03-08T05:17:58.508Z,995.17
2018-03-08T05:18:57.947Z,995.18
2018-03-08T05:19:57.959Z,995.17
2018-03-08T05:20:57.968Z,995.14
2018-03-08T05:21:57.953Z,995.16
2018-03-08T05:22:57.938Z,995.18
2018-03-08T05:23:57.968Z,995.19
2018-03-08T05:24:57.932Z,995.23
2018-03-08T05:25:57.974Z,995.16
2018-03-08T05:26:57.942Z,995.20
2018-03-08T05:27:57.978Z,995.18
2018-03-08T05:28:57.949Z,995.20
2018-03-08T05:29:57.937Z,995.17
2018-03-08T05:30:58.078Z,995.22
2018-03-08T05:31:57.990Z,995.17
2018-03-08T05:32:57.973Z,995.18
2018-03-08T05:33:57.944Z,995.17
2018-03-08T05:34:57.936Z,995.20
2018-03-08T05:35:57.926Z,995.18
2018-03-08T05:36:57.953Z,995.22
2018-03-08T05:37:57.992Z,995.24
2018-03-08T05:38:57.952Z,995.19
2018-03-08T05:39:57.940Z,995.23
2018-03-08T05:40:57.932Z,995.25
2018-03-08T05:41:57.952Z,995.21
2018-03-08T05:42:57.967Z,995.20
2018-03-08T05:43:58.067Z,995.18
2018-03-08T05:44:57.938Z,995.19
2018-03-08T05:45:57.971Z,995.23
2018-03-08T05:46:57.986Z,995.24
2018-03-08T05:47:57.937Z,995.24
2018-03-08T05:48:57.933Z,995.29
2018-03-08T05:49:57.944Z,995.29
2018-03-08T05:50:57.937Z,995.32
2018-03-08T05:51:57.932Z,995.33
2018-03-08T05:52:57.930Z,995.35
2018-03-08T05:53:57.937Z,995.33
2018-03-08T05:54:57.934Z,995.39
2018-03-08T05:55:57.942Z,995.40
2018-03-08T05:56:58.508Z,995.43
2018-03-08T05:57:57.964Z,995.42
2018-03-08T05:58:57.956Z,995.39
2018-03-08T05:59:57.932Z,995.44
2018-03-08T06:00:57.987Z,995.40
2018-03-08T06:01:57.928Z,995.44
2018-03-08T06:02:57.960Z,995.52
2018-03-08T06:03:57.933Z,995.52
2018-03-08T06:04:57.975Z,995.53
2018-03-08T06:05:57.965Z,995.57
2018-03-08T06:06:57.939Z,995.57
2018-03-08T06:07:57.923Z,995.64
2018-03-08T06:08:57.926Z,995.66
2018-03-08T06:09:57.925Z,995.68
2018-03-08T06:10:57.931Z,995.69
2018-03-08T06:11:57.954Z,995.69
2018-03-08T06:12:57.977Z,995.68
2018-03-08T06:13:57.927Z,995.70
2018-03-08T06:14:57.922Z,995.70
2018-03-08T06:15:57.953Z,995.75
2018-03-08T06:16:57.963Z,995.73
2018-03-08T06:17:57.949Z,995.76
2018-03-08T06:18:57.937Z,995.74
2018-03-08T06:19:58.012Z,995.78
2018-03-08T06:20:57.945Z,995.76
2018-03-08T06:21:58.052Z,995.74
2018-03-08T06:22:57.922Z,995.77
2018-03-08T06:23:57.922Z,995.81
2018-03-08T06:24:57.921Z,995.71
2018-03-08T06:25:57.925Z,995.80
2018-03-08T06:26:57.944Z,995.82
2018-03-08T06:27:57.921Z,995.82
2018-03-08T06:28:57.951Z,995.85
2018-03-08T06:29:57.954Z,995.85
2018-03-08T06:30:57.949Z,995.89
2018-03-08T06:31:57.927Z,995.91
2018-03-08T06:32:57.927Z,995.90
2018-03-08T06:33:57.919Z,995.92
2018-03-08T06:34:57.995Z,995.91
2018-03-08T06:35:57.953Z,995.89
2018-03-08T06:36:57.918Z,995.91
2018-03-08T06:37:57.934Z,995.91
2018-03-08T06:38:57.944Z,995.92
2018-03-08T06:39:57.941Z,995.94
2018-03-08T06:40:57.968Z,995.93
2018-03-08T06:41:58.020Z,995.94
2018-03-08T06:42:57.987Z,995.92
2018-03-08T06:43:57.930Z,995.91
2018-03-08T06:44:57.959Z,996.13
2018-03-08T06:45:57.916Z,996.02
2018-03-08T06:46:57.982Z,995.93
2018-03-08T06:47:57.921Z,995.98
2018-03-08T06:48:57.921Z,996.04
2018-03-08T06:49:57.929Z,995.96
2018-03-08T06:50:57.927Z,995.95
2018-03-08T06:51:57.927Z,995.95
2018-03-08T06:52:57.911Z,995.98
2018-03-08T06:53:57.974Z,995.99
2018-03-08T06:54:57.917Z,996.03
2018-03-08T06:55:57.928Z,996.07
2018-03-08T06:56:57.963Z,996.08
2018-03-08T06:57:57.979Z,996.12
2018-03-08T06:58:58.528Z,996.09
2018-03-08T06:59:57.945Z,996.08
2018-03-08T07:00:57.939Z,996.14
2018-03-08T07:01:57.948Z,996.14
2018-03-08T07:02:57.915Z,996.14
2018-03-08T07:03:58.012Z,996.15
2018-03-08T07:04:57.932Z,996.20
2018-03-08T07:05:57.924Z,996.23
2018-03-08T07:06:57.966Z,996.16
2018-03-08T07:07:57.920Z,996.14
2018-03-08T07:08:57.919Z,996.17
2018-03-08T07:09:57.924Z,996.23
2018-03-08T07:10:57.911Z,996.24
2018-03-08T07:11:58.018Z,996.21
2018-03-08T07:12:57.925Z,996.21
2018-03-08T07:13:57.915Z,996.22
2018-03-08T07:14:57.964Z,996.21
2018-03-08T07:15:57.934Z,996.20
2018-03-08T07:16:57.937Z,996.18
2018-03-08T07:17:57.921Z,996.16
2018-03-08T07:18:57.917Z,996.21
2018-03-08T07:19:57.954Z,996.22
2018-03-08T07:20:57.964Z,996.19
2018-03-08T07:21:57.976Z,996.19
2018-03-08T07:22:57.912Z,996.24
2018-03-08T07:23:57.936Z,996.26
2018-03-08T07:24:58.049Z,996.21
2018-03-08T07:25:57.948Z,996.22
2018-03-08T07:26:57.932Z,996.24
2018-03-08T07:27:57.917Z,996.28
2018-03-08T07:28:57.972Z,996.24
2018-03-08T07:29:58.135Z,996.28
2018-03-08T07:30:58.408Z,996.36
2018-03-08T07:31:57.912Z,996.47
2018-03-08T07:32:57.963Z,996.49
2018-03-08T07:33:57.923Z,996.45
2018-03-08T07:34:57.948Z,996.53
2018-03-08T07:35:57.928Z,996.58
2018-03-08T07:36:57.920Z,996.56
2018-03-08T07:37:58.537Z,996.59
2018-03-08T07:38:57.923Z,996.57
2018-03-08T07:39:57.929Z,996.64
2018-03-08T07:40:57.976Z,996.67
2018-03-08T07:41:57.967Z,996.68
2018-03-08T07:42:57.944Z,996.75
2018-03-08T07:43:57.964Z,996.77
2018-03-08T07:44:57.936Z,996.84
2018-03-08T07:45:58.038Z,996.97
2018-03-08T07:46:57.974Z,996.89
2018-03-08T07:47:57.951Z,996.92
2018-03-08T07:48:57.993Z,997.10
2018-03-08T07:49:57.972Z,997.12
2018-03-08T07:50:57.962Z,997.35
2018-03-08T07:51:57.963Z,997.43
2018-03-08T07:52:57.994Z,997.57
2018-03-08T07:53:57.972Z,997.61
2018-03-08T07:54:57.984Z,998.03
2018-03-08T07:55:58.097Z,998.85
2018-03-08T07:56:58.019Z,999.54
2018-03-08T07:57:58.002Z,999.33
2018-03-08T07:58:57.996Z,998.54
2018-03-08T07:59:57.970Z,997.86
2018-03-08T08:00:57.996Z,997.63
2018-03-08T08:01:58.043Z,997.54
2018-03-08T08:02:57.992Z,997.44
2018-03-08T08:03:57.984Z,997.35
2018-03-08T08:04:57.990Z,997.32
2018-03-08T08:05:57.991Z,997.42
2018-03-08T08:06:58.034Z,997.44
2018-03-08T08:07:58.014Z,997.19
2018-03-08T08:08:58.550Z,997.10
2018-03-08T08:09:58.013Z,997.12
2018-03-08T08:10:58.027Z,997.11
2018-03-08T08:11:58.031Z,997.06
2018-03-08T08:12:58.038Z,997.07
2018-03-08T08:13:58.066Z,996.98
2018-03-08T08:14:58.057Z,997.00
2018-03-08T08:15:58.130Z,997.01
2018-03-08T08:17:00.626Z,996.94
2018-03-08T08:17:58.121Z,996.95
2018-03-08T08:18:58.086Z,996.94
2018-03-08T08:19:58.103Z,996.90
2018-03-08T08:20:58.148Z,996.91
2018-03-08T08:21:58.179Z,996.87
2018-03-08T08:22:58.141Z,996.94
2018-03-08T08:23:58.105Z,996.88
2018-03-08T08:24:58.101Z,996.95
2018-03-08T08:25:58.096Z,996.94
2018-03-08T08:26:58.090Z,996.95
2018-03-08T08:27:58.152Z,996.92
2018-03-08T08:28:58.203Z,996.89
2018-03-08T08:29:58.131Z,996.95
2018-03-08T08:30:58.114Z,996.99
2018-03-08T08:31:58.194Z,996.98
2018-03-08T08:32:58.144Z,997.05
2018-03-08T08:33:58.147Z,997.06
2018-03-08T08:34:58.160Z,997.11
2018-03-08T08:35:58.221Z,996.99
2018-03-08T08:36:58.160Z,996.99
2018-03-08T08:37:58.152Z,997.05
2018-03-08T08:38:58.178Z,997.20
2018-03-08T08:39:58.279Z,997.19
2018-03-08T08:40:58.274Z,997.20
2018-03-08T08:41:58.202Z,997.18
2018-03-08T08:42:58.194Z,997.18
2018-03-08T08:43:58.208Z,997.31
2018-03-08T08:44:58.246Z,997.25
2018-03-08T08:45:58.237Z,997.30
2018-03-08T08:46:58.260Z,997.42
2018-03-08T08:47:58.223Z,997.58
2018-03-08T08:48:58.266Z,997.56
2018-03-08T08:49:58.434Z,997.37
2018-03-08T08:50:58.342Z,997.19
2018-03-08T08:51:58.267Z,996.99
2018-03-08T08:52:58.261Z,996.78
2018-03-08T08:53:58.324Z,996.77
2018-03-08T08:54:58.301Z,996.67
2018-03-08T08:55:58.384Z,996.78
2018-03-08T08:56:58.316Z,996.76
2018-03-08T08:57:58.309Z,996.86
2018-03-08T08:58:58.316Z,996.95
2018-03-08T08:59:59.067Z,997.02
2018-03-08T09:00:58.381Z,997.17
2018-03-08T09:01:58.404Z,997.32
2018-03-08T09:02:58.399Z,997.34
2018-03-08T09:03:58.379Z,997.26
2018-03-08T09:04:58.378Z,997.33
2018-03-08T09:05:58.367Z,997.37
2018-03-08T09:06:58.422Z,997.33
2018-03-08T09:07:58.390Z,997.24
2018-03-08T09:08:58.410Z,997.36
2018-03-08T09:09:58.425Z,997.43
2018-03-08T09:10:58.485Z,997.40
2018-03-08T09:11:58.420Z,997.41
2018-03-08T09:12:58.542Z,997.50
2018-03-08T09:13:58.448Z,997.43
2018-03-08T09:14:58.450Z,997.59
2018-03-08T09:15:58.474Z,996.86
2018-03-08T09:16:58.470Z,997.85
2018-03-08T09:17:59.075Z,997.68
2018-03-08T09:18:58.485Z,997.21
2018-03-08T09:19:58.500Z,997.70
2018-03-08T09:20:59.575Z,997.86
2018-03-08T09:21:58.533Z,997.80
2018-03-08T09:22:58.530Z,997.76
2018-03-08T09:23:58.548Z,997.59
2018-03-08T09:24:58.591Z,997.52
2018-03-08T09:25:58.554Z,997.04
2018-03-08T09:26:58.600Z,997.12
2018-03-08T09:27:58.611Z,997.34
2018-03-08T09:28:58.620Z,997.42
2018-03-08T09:29:58.595Z,997.45
2018-03-08T09:30:58.659Z,997.43
2018-03-08T09:31:58.840Z,997.38
2018-03-08T09:32:58.664Z,997.50
2018-03-08T09:33:58.629Z,997.38
2018-03-08T09:34:58.855Z,996.70
2018-03-08T09:35:59.590Z,996.86
2018-03-08T09:36:58.743Z,996.58
2018-03-08T09:37:59.591Z,996.74
2018-03-08T09:38:58.687Z,996.71
2018-03-08T09:39:58.693Z,996.92
2018-03-08T09:40:59.592Z,996.84
2018-03-08T09:41:58.719Z,996.63
2018-03-08T09:42:58.747Z,996.97
2018-03-08T09:44:01.779Z,997.08
2018-03-08T09:44:58.762Z,997.03
2018-03-08T09:45:58.810Z,997.07
2018-03-08T09:46:58.746Z,996.89
2018-03-08T09:47:58.874Z,996.95
2018-03-08T09:48:58.788Z,997.09
2018-03-08T09:49:58.793Z,997.10
2018-03-08T09:50:58.886Z,996.74
2018-03-08T09:51:58.824Z,996.81
2018-03-08T09:52:58.865Z,996.92
2018-03-08T09:53:58.825Z,996.83
2018-03-08T09:54:58.983Z,996.83
2018-03-08T09:55:59.083Z,996.78
2018-03-08T09:56:58.843Z,996.80
2018-03-08T09:57:58.867Z,996.55
2018-03-08T09:58:58.917Z,997.01
2018-03-08T09:59:58.909Z,997.38
2018-03-08T10:00:59.033Z,996.65
2018-03-08T10:01:58.938Z,996.99
2018-03-08T10:02:58.920Z,996.55
2018-03-08T10:03:58.926Z,996.34
2018-03-08T10:04:58.980Z,996.59
2018-03-08T10:05:58.977Z,996.48
2018-03-08T10:06:58.954Z,996.19
2018-03-08T10:07:58.971Z,996.07
2018-03-08T10:08:58.993Z,995.95
2018-03-08T10:09:58.976Z,995.81
2018-03-08T10:10:58.979Z,996.14
2018-03-08T10:11:59.040Z,996.21
2018-03-08T10:12:59.015Z,996.07
2018-03-08T10:13:59.023Z,995.85
2018-03-08T10:14:59.148Z,995.81
2018-03-08T10:15:59.227Z,996.03
2018-03-08T10:16:59.036Z,995.72
2018-03-08T10:17:59.046Z,995.32
2018-03-08T10:18:59.049Z,995.23
2018-03-08T10:20:00.579Z,995.15
2018-03-08T10:20:59.118Z,995.18
2018-03-08T10:21:59.083Z,995.19
2018-03-08T10:22:59.073Z,995.24
2018-03-08T10:23:59.089Z,995.26
2018-03-08T10:24:59.124Z,995.68
2018-03-08T10:25:59.087Z,996.13
2018-03-08T10:26:59.114Z,995.81
2018-03-08T10:27:59.096Z,995.81
2018-03-08T10:29:00.170Z,995.46
2018-03-08T10:29:59.154Z,995.44
2018-03-08T10:30:59.204Z,995.63
2018-03-08T10:31:59.158Z,995.67
2018-03-08T10:32:59.141Z,996.39
2018-03-08T10:33:59.144Z,995.43
2018-03-08T10:34:59.164Z,995.33
2018-03-08T10:35:59.188Z,995.53
2018-03-08T10:36:59.148Z,995.89
2018-03-08T10:37:59.153Z,995.49
2018-03-08T10:38:59.308Z,995.75
2018-03-08T10:39:59.160Z,995.58
2018-03-08T10:40:59.215Z,995.78
2018-03-08T10:41:59.180Z,995.61
2018-03-08T10:42:59.201Z,995.72
2018-03-08T10:43:59.198Z,995.44
2018-03-08T10:44:59.234Z,995.39
2018-03-08T10:45:59.209Z,995.26
2018-03-08T10:46:59.202Z,995.16
2018-03-08T10:47:59.244Z,994.90
2018-03-08T10:49:59.261Z,994.98
2018-03-08T10:51:00.129Z,995.10
2018-03-08T10:51:59.304Z,995.10
2018-03-08T10:52:59.258Z,995.06
2018-03-08T10:53:59.234Z,995.06
2018-03-08T10:54:59.238Z,995.12
2018-03-08T10:55:59.235Z,995.07
2018-03-08T10:56:59.245Z,995.09
2018-03-08T10:57:59.294Z,995.10
2018-03-08T10:58:59.241Z,995.08
2018-03-08T10:59:59.267Z,995.01
2018-03-08T11:00:59.275Z,995.02
2018-03-08T11:01:59.305Z,995.02
2018-03-08T11:02:59.272Z,995.03
2018-03-08T11:03:59.269Z,995.04
2018-03-08T11:04:59.318Z,994.98
2018-03-08T11:05:59.298Z,994.94
2018-03-08T11:06:59.292Z,994.98
2018-03-08T11:07:59.362Z,994.92
2018-03-08T11:08:59.300Z,994.81
2018-03-08T11:09:59.412Z,994.80
2018-03-08T11:10:59.328Z,994.88
2018-03-08T11:11:59.305Z,994.81
2018-03-08T11:12:59.404Z,994.89
2018-03-08T11:13:59.316Z,994.90
2018-03-08T11:14:59.330Z,994.87
2018-03-08T11:15:59.342Z,994.86
2018-03-08T11:16:59.323Z,994.90
2018-03-08T11:17:59.324Z,994.87
2018-03-08T11:18:59.331Z,994.91
2018-03-08T11:19:59.327Z,994.92
2018-03-08T11:20:59.341Z,994.84
2018-03-08T11:21:59.368Z,994.80
2018-03-08T11:22:59.538Z,994.78
2018-03-08T11:23:59.371Z,994.74
2018-03-08T11:24:59.433Z,994.76
2018-03-08T11:25:59.398Z,994.81
2018-03-08T11:26:59.405Z,994.82
2018-03-08T11:27:59.395Z,994.85
2018-03-08T11:28:59.408Z,994.83
2018-03-08T11:29:59.365Z,994.77
2018-03-08T11:30:59.363Z,994.76
2018-03-08T11:31:59.389Z,994.77
2018-03-08T11:32:59.375Z,994.73
2018-03-08T11:33:59.371Z,994.71
2018-03-08T11:34:59.424Z,994.78
2018-03-08T11:36:00.140Z,994.77
2018-03-08T11:36:59.429Z,994.85
2018-03-08T11:37:59.429Z,994.77
2018-03-08T11:38:59.391Z,994.83
2018-03-08T11:39:59.387Z,994.86
2018-03-08T11:41:01.748Z,994.85
2018-03-08T11:41:59.426Z,994.66
2018-03-08T11:42:59.407Z,994.50
2018-03-08T11:43:59.466Z,994.53
2018-03-08T11:44:59.410Z,994.47
2018-03-08T11:45:59.421Z,994.49
2018-03-08T11:46:59.446Z,994.47
2018-03-08T11:47:59.430Z,994.43
2018-03-08T11:49:00.400Z,994.31
2018-03-08T11:49:59.439Z,994.29
2018-03-08T11:50:59.442Z,994.31
2018-03-08T11:51:59.434Z,994.25
2018-03-08T11:52:59.480Z,994.18
2018-03-08T11:53:59.565Z,994.33
2018-03-08T11:54:59.479Z,994.37
2018-03-08T11:55:59.490Z,994.48
2018-03-08T11:56:59.537Z,994.37
2018-03-08T11:57:59.482Z,994.31
2018-03-08T11:58:59.449Z,994.56
2018-03-08T11:59:59.454Z,994.82
2018-03-08T12:00:59.486Z,994.77
2018-03-08T12:01:59.495Z,994.68
2018-03-08T12:02:59.509Z,994.48
2018-03-08T12:04:00.151Z,994.18
2018-03-08T12:04:59.503Z,994.36
2018-03-08T12:05:59.468Z,994.34
2018-03-08T12:06:59.564Z,994.18
2018-03-08T12:07:59.473Z,994.14
2018-03-08T12:08:59.484Z,994.09
2018-03-08T12:09:59.482Z,994.15
2018-03-08T12:10:59.490Z,994.06
2018-03-08T12:11:59.504Z,994.09
2018-03-08T12:12:59.486Z,994.21
2018-03-08T12:13:59.522Z,994.21
2018-03-08T12:14:59.539Z,994.13
2018-03-08T12:15:59.496Z,994.24
2018-03-08T12:16:59.633Z,994.26
2018-03-08T12:17:59.558Z,994.27
2018-03-08T12:18:59.499Z,994.22
2018-03-08T12:19:59.553Z,994.15
2018-03-08T12:20:59.512Z,994.10
2018-03-08T12:22:00.157Z,994.09
2018-03-08T12:22:59.523Z,993.97
2018-03-08T12:23:59.583Z,993.86
2018-03-08T12:24:59.548Z,993.86
2018-03-08T12:25:59.574Z,993.84
2018-03-08T12:26:59.600Z,993.79
2018-03-08T12:27:59.605Z,993.67
2018-03-08T12:28:59.547Z,993.65
2018-03-08T12:29:59.718Z,993.71